中部国際空港の過去48時間の天気

中部国際空港 (Chubu Centrair International)

現在時刻: 3/22 09:59 JST (3/22 00:59 UTC) 以下の時間は現地時間です。

過去48時間のMETAR気象情報
時間 風向 風速(m/s) 視程 気温(℃) 湿度(%) 気圧(hPa) 天気現象
22 09:30 北西 12 10km以上 14 63 1007
22 09:00 北西 14 10km以上 13 72 1006
22 08:30 北西 12 10km以上 14 67 1005
22 08:00 北西 13 10km以上 14 67 1006
22 07:30 北北西 12 10km以上 14 67 1006
22 07:00 北西 14 10km以上 14 67 1005
22 06:30 北北西 9 10km以上 14 67 1006
22 06:00 北西 11 10km以上 14 72 1005
22 05:30 北西 12 10km以上 14 72 1004
22 05:00 北北西 10 10km以上 15 72 1004
22 04:30 北北西 10 10km以上 15 72 1003
22 04:00 北北西 10 10km以上 15 77 1003
22 03:30 北北西 11 10km以上 14 82 1003
22 03:00 北北西 10 10km以上 14 88 1004
22 02:30 北北西 6 10km以上 15 88 1004
22 02:00 北北西 5 7000m 14 94 1004
22 01:30 北北西 3 6000m 14 94 1004
22 01:00 北北西 3 6000m 14 94 1004
22 00:30 5 6000m 15 94 1004
22 00:00 不定 1 7000m 14 94 1004
21 23:30 6 7000m 15 88 1004
21 23:00 5 7000m 15 94 1005
21 22:30 5 8000m 15 88 1005
21 22:00 4 9000m 15 88 1005
21 21:30 5 9000m 15 88 1005
21 21:00 5 9000m 14 94 1005
21 20:30 3 10km以上 15 88 1005
21 20:00 3 10km以上 15 88 1005
21 19:30 不定 1 10km以上 17 88 1005
21 19:00 東南東 3 10km以上 17 88 1005
21 18:30 南南東 4 10km以上 16 88 1005
21 18:00 5 10km以上 17 83 1005
21 17:30 南南東 6 10km以上 17 83 1005
21 17:00 南南東 5 10km以上 16 82 1005
21 16:30 南南東 5 10km以上 17 83 1005
21 16:00 南南東 6 10km以上 18 77 1005
21 15:30 南南東 3 10km以上 17 77 1005
21 15:00 南南東 6 10km以上 20 68 1005
21 14:30 7 10km以上 19 68 1006
21 14:00 南南東 6 10km以上 18 73 1006
21 13:30 南南東 8 10km以上 20 64 1006
21 13:00 南南東 8 10km以上 18 73 1007
21 12:30 南南東 7 10km以上 19 68 1007
21 12:00 南南東 7 10km以上 19 68 1008
21 11:30 南東 6 10km以上 18 77 1008
21 11:00 南南東 6 10km以上 17 77 1009
21 10:30 南南東 7 10km以上 17 77 1009
21 10:00 南南東 5 10km以上 16 82 1010 弱いしゅう雨
21 09:30 南南東 6 10km以上 15 82 1010 弱いしゅう雨
21 09:00 南南東 5 10km以上 15 88 1010 弱いしゅう雨
21 08:30 南南東 6 10km以上 15 88 1010 弱いしゅう雨
21 08:00 南南東 6 10km以上 16 77 1010 周辺でしゅう雨
21 07:30 南東 6 10km以上 15 88 1010
21 07:00 東南東 6 10km以上 14 88 1011 周辺でしゅう雨
21 06:30 東南東 6 10km以上 14 82 1011 弱いしゅう雨
21 06:00 東南東 6 10km以上 13 88 1011 周辺でしゅう雨
21 05:30 東南東 6 10km以上 14 82 1011 弱いしゅう雨
21 05:00 東南東 6 10km以上 14 82 1011 弱いしゅう雨
21 04:30 東南東 5 10km以上 13 82 1012 弱いしゅう雨
21 04:00 東南東 6 10km以上 13 82 1012 弱いしゅう雨
21 03:30 東南東 4 10km以上 14 77 1013 周辺でしゅう雨
21 03:00 東南東 4 10km以上 14 77 1014 弱いしゅう雨
21 02:30 東南東 3 10km以上 14 72 1015
21 02:00 南南東 4 10km以上 13 77 1015
21 01:30 東南東 5 10km以上 15 63 1014
21 01:00 5 10km以上 15 63 1014
21 00:30 東南東 6 10km以上 15 63 1015
21 00:00 南東 4 10km以上 13 72 1015
20 23:30 東南東 4 10km以上 14 67 1016
20 23:00 東南東 4 10km以上 13 72 1016
20 22:30 東南東 3 10km以上 14 67 1017
20 22:00 東南東 2 10km以上 14 67 1018
20 21:30 東南東 4 10km以上 14 67 1017
20 21:00 南東 4 10km以上 14 67 1018
20 20:30 南東 4 10km以上 14 67 1018
20 20:00 南東 4 10km以上 13 67 1018
20 19:30 東南東 4 10km以上 14 63 1018
20 19:00 南東 3 10km以上 14 63 1018
20 18:30 南東 3 10km以上 15 59 1018
20 18:00 南南東 4 10km以上 15 59 1018
20 17:30 南南東 5 10km以上 15 59 1017
20 17:00 南東 7 10km以上 17 48 1017
20 16:30 南南東 7 10km以上 17 48 1017
20 16:00 南南東 6 10km以上 17 48 1017
20 15:30 南南東 6 10km以上 18 45 1017
20 15:00 南南東 7 10km以上 19 43 1017
20 14:30 南南東 6 10km以上 20 35 1017
20 14:00 南南東 5 10km以上 19 35 1017
20 13:30 南東 2 10km以上 18 34 1017
20 13:00 2 10km以上 15 51 1017
20 12:30 西南西 2 10km以上 14 63 1018
20 12:00 南南西 3 10km以上 14 63 1018
20 11:30 南南西 3 10km以上 13 67 1018
20 11:00 西南西 1 10km以上 13 62 1018
20 10:30 西北西 2 10km以上 13 72 1018
20 10:00 北西 2 10km以上 12 71 1019
RJGG 220030Z 31024KT 9999 FEW020 BKN/// 14/07 Q1007 NOSIG
RJGG 220000Z 31027KT 9999 FEW020 BKN/// 13/08 Q1006 NOSIG
RJGG 212330Z 31024KT 9999 FEW020 14/08 Q1005 NOSIG
RJGG 212300Z 32025KT 9999 FEW020 SCT050 14/08 Q1006 NOSIG
RJGG 212230Z 33023KT 9999 FEW020 BKN070 14/08 Q1006 NOSIG
RJGG 212200Z 32027KT 9999 FEW020 SCT050 BKN070 14/08 Q1005 NOSIG
RJGG 212130Z 33018KT 9999 FEW020 BKN050 14/08 Q1006 NOSIG
RJGG 212100Z 32021KT 9999 FEW020 BKN050 BKN150 14/09 Q1005 NOSIG
RJGG 212030Z 32023KT 9999 FEW020 BKN050 14/09 Q1004 NOSIG
RJGG 212000Z 33020KT 9999 FEW020 BKN050 15/10 Q1004 NOSIG
RJGG 211930Z 33020KT 9999 FEW020 BKN050 15/10 Q1003 NOSIG
RJGG 211900Z 33020KT 9999 FEW020 BKN040 BKN160 15/11 Q1003 NOSIG
RJGG 211830Z 33021KT 9999 FEW020 BKN160 14/11 Q1003 NOSIG
RJGG 211800Z 33019KT 9999 FEW010 SCT050 BKN/// 14/12 Q1004 NOSIG
RJGG 211730Z 34012KT 9999 FEW010 BKN/// 15/13 Q1004 NOSIG
RJGG 211700Z 33009KT 7000 FEW008 SCT010 BKN020 14/13 Q1004 NOSIG
RJGG 211630Z 33006KT 6000 FEW008 BKN010 14/13 Q1004 NOSIG
RJGG 211600Z 33006KT 6000 FEW008 BKN010 14/13 Q1004 NOSIG
RJGG 211530Z 36009KT 6000 FEW008 BKN010 15/14 Q1004 NOSIG
RJGG 211500Z VRB02KT 7000 FEW010 BKN/// 14/13 Q1004 BECMG 32012KT
RJGG 211430Z 36011KT 7000 FEW010 BKN/// 15/13 Q1004 NOSIG
RJGG 211400Z 36010KT 7000 SCT008 BKN035 15/14 Q1005 NOSIG
RJGG 211330Z 36009KT 8000 FEW008 BKN035 BKN/// 15/13 Q1005 NOSIG
RJGG 211300Z 01007KT 9000 FEW010 SCT035 BKN/// 15/13 Q1005 NOSIG
RJGG 211230Z 36009KT 9000 FEW010 SCT040 BKN/// 15/13 Q1005 NOSIG
RJGG 211200Z 36010KT 9000 FEW010 SCT040 14/13 Q1005 NOSIG
RJGG 211130Z 35005KT 310V040 9999 FEW010 BKN020 15/13 Q1005 NOSIG
RJGG 211100Z 09005KT 9999 FEW010 BKN020 15/13 Q1005 BECMG 04006KT
RJGG 211030Z VRB02KT 9999 FEW010 BKN020 17/15 Q1005 BECMG 04006KT
RJGG 211000Z 12005KT 9999 FEW010 SCT020 BKN080 17/15 Q1005 NOSIG
RJGG 210930Z 16007KT 9999 FEW020 SCT050 BKN080 16/14 Q1005 NOSIG
RJGG 210900Z 17009KT 9999 FEW020 BKN050 17/14 Q1005 NOSIG
RJGG 210830Z 15011KT 9999 FEW020 BKN050 17/14 Q1005 NOSIG
RJGG 210800Z 16010KT 9999 FEW020 BKN050 16/13 Q1005 NOSIG
RJGG 210730Z 15009KT 9999 FEW020 BKN050 17/14 Q1005 NOSIG
RJGG 210700Z 16011KT 9999 FEW020 BKN050 18/14 Q1005 NOSIG
RJGG 210630Z 16005KT 130V200 9999 FEW020 SCT050 BKN070 17/13 Q1005 NOSIG
RJGG 210600Z 15011KT 9999 FEW020 BKN060 BKN/// 20/14 Q1005 NOSIG
RJGG 210530Z 17013KT 9999 FEW020 SCT050 BKN/// 19/13 Q1006 NOSIG
RJGG 210500Z 15011KT 9999 FEW020 BKN060 BKN100 18/13 Q1006 NOSIG
RJGG 210430Z 15015KT 9999 FEW020 SCT070 BKN100 20/13 Q1006 NOSIG
RJGG 210400Z 16015KT 9999 FEW020 BKN070 18/13 Q1007 NOSIG
RJGG 210330Z 15014KT 9999 FEW020 SCT080 19/13 Q1007 NOSIG
RJGG 210300Z 16014KT 9999 FEW020 SCT070 19/13 Q1008 NOSIG
RJGG 210230Z 13011KT 9999 FEW015 SCT070 BKN/// 18/14 Q1008 BECMG 16021KT
RJGG 210200Z 15012KT 9999 FEW015 SCT030 BKN070 17/13 Q1009 NOSIG
RJGG 210130Z 15013KT 9999 FEW015 SCT035 BKN080 17/13 Q1009 NOSIG
RJGG 210100Z 15010KT 9999 -SHRA FEW012 BKN035 16/13 Q1010 NOSIG
RJGG 210030Z 16012KT 9999 -SHRA FEW015 BKN030 15/12 Q1010 NOSIG
RJGG 210000Z 15010KT 9999 -SHRA FEW015 BKN030 15/13 Q1010 NOSIG
RJGG 202330Z 15012KT 9999 -SHRA FEW015 BKN035 BKN060 15/13 Q1010 NOSIG
RJGG 202300Z 15011KT 9999 VCSH FEW015 BKN040 16/12 Q1010 NOSIG
RJGG 202230Z 14012KT 9999 FEW020 SCT035 BKN050 15/13 Q1010 NOSIG
RJGG 202200Z 12011KT 9999 VCSH FEW020 BKN050 BKN080 14/12 Q1011 NOSIG
RJGG 202130Z 12011KT 9999 -SHRA FEW020 SCT040 BKN080 14/11 Q1011 NOSIG
RJGG 202100Z 11012KT 9999 VCSH FEW020 SCT050 BKN080 13/11 Q1011 NOSIG
RJGG 202030Z 12011KT 9999 -SHRA FEW020 SCT035 BKN090 14/11 Q1011 NOSIG
RJGG 202000Z 12012KT 9999 -SHRA FEW020 SCT035 BKN100 14/11 Q1011 NOSIG
RJGG 201930Z 12010KT 9999 -SHRA FEW020 SCT035 BKN100 13/10 Q1012 NOSIG
RJGG 201900Z 11011KT 9999 -SHRA FEW020 SCT040 BKN100 13/10 Q1012 NOSIG
RJGG 201830Z 11008KT 9999 VCSH FEW020 SCT050 BKN080 14/10 Q1013 NOSIG
RJGG 201800Z 11007KT 9999 -SHRA FEW020 SCT040 BKN080 14/10 Q1014 NOSIG
RJGG 201730Z 11006KT 9999 FEW020 BKN100 14/09 Q1015 NOSIG
RJGG 201700Z 15007KT 9999 FEW020 SCT030 BKN120 13/09 Q1015 NOSIG
RJGG 201630Z 11010KT 9999 FEW020 SCT040 BKN120 15/08 Q1014 NOSIG
RJGG 201600Z 10010KT 9999 FEW020 SCT030 BKN140 15/08 Q1014 NOSIG
RJGG 201530Z 12011KT 9999 SCT030 BKN140 15/08 Q1015 NOSIG
RJGG 201500Z 14007KT 9999 FEW030 BKN160 13/08 Q1015 NOSIG
RJGG 201430Z 12008KT 9999 FEW030 BKN160 14/08 Q1016 NOSIG
RJGG 201400Z 12008KT 9999 FEW030 SCT150 BKN/// 13/08 Q1016 NOSIG
RJGG 201330Z 11005KT 9999 FEW030 BKN/// 14/08 Q1017 NOSIG
RJGG 201300Z 11004KT 9999 FEW030 BKN/// 14/08 Q1018 NOSIG
RJGG 201230Z 12008KT 9999 FEW030 BKN/// 14/08 Q1017 NOSIG
RJGG 201200Z 14007KT 9999 FEW030 BKN/// 14/08 Q1018 NOSIG
RJGG 201130Z 14007KT 9999 FEW030 BKN/// 14/08 Q1018 NOSIG
RJGG 201100Z 13007KT 9999 FEW030 BKN/// 13/07 Q1018 NOSIG
RJGG 201030Z 12007KT 9999 FEW030 BKN/// 14/07 Q1018 NOSIG
RJGG 201000Z 13006KT 9999 FEW030 BKN/// 14/07 Q1018 NOSIG
RJGG 200930Z 14006KT 9999 FEW030 BKN/// 15/07 Q1018 NOSIG
RJGG 200900Z 15008KT 9999 FEW030 BKN/// 15/07 Q1018 NOSIG
RJGG 200830Z 15009KT 9999 FEW030 BKN/// 15/07 Q1017 NOSIG
RJGG 200800Z 14013KT CAVOK 17/06 Q1017 NOSIG
RJGG 200730Z 15013KT CAVOK 17/06 Q1017 NOSIG
RJGG 200700Z 15012KT 9999 FEW050 BKN/// 17/06 Q1017 NOSIG
RJGG 200630Z 15012KT 9999 FEW030 BKN/// 18/06 Q1017 NOSIG
RJGG 200600Z 16013KT 9999 FEW030 BKN/// 19/06 Q1017 NOSIG
RJGG 200530Z 16012KT 9999 FEW030 BKN/// 20/04 Q1017 NOSIG
RJGG 200500Z 16009KT CAVOK 19/03 Q1017 NOSIG
RJGG 200430Z 14004KT 9999 FEW040 BKN/// 18/02 Q1017 BECMG 16014KT
RJGG 200400Z 19004KT 9999 FEW040 BKN/// 15/05 Q1017 NOSIG
RJGG 200330Z 24004KT 9999 FEW040 BKN/// 14/07 Q1018 BECMG 16010KT
RJGG 200300Z 21005KT 9999 FEW040 BKN/// 14/07 Q1018 NOSIG
RJGG 200230Z 21005KT 9999 FEW040 SCT/// 13/07 Q1018 NOSIG
RJGG 200200Z 24002KT 9999 FEW040 13/06 Q1018 NOSIG
RJGG 200130Z 30003KT 9999 FEW040 13/08 Q1018 BECMG 24005KT
RJGG 200100Z 31004KT CAVOK 12/07 Q1019 BECMG 24005KT